Time;durP1;ratioP1;P1;durP2;ratioP2;P2;SDS_P1;SDS_P2;PMS_P1;PMS_P2;Temp;Humidity;BMP_temperature;BMP_pressure;BME280_temperature;BME280_humidity;BME280_pressure;Samples;Min_cycle;Max_cycle;Signal;HPM_P1;HPM_P2
2021/12/07 00:01:17;;;;;;;0.87;0.50;;;2.70;99.90;;;;;;5058595;28;20525;-71
2021/12/07 00:03:45;;;;;;;0.90;0.40;;;2.70;99.90;;;;;;5058587;28;20483;-70
2021/12/07 00:06:13;;;;;;;0.80;0.50;;;2.70;99.90;;;;;;5057671;28;20838;-72
2021/12/07 00:08:41;;;;;;;1.20;0.70;;;2.60;99.90;;;;;;5057987;28;20783;-71
2021/12/07 00:11:09;;;;;;;0.90;0.40;;;2.60;99.90;;;;;;5057898;28;20503;-71
2021/12/07 00:13:39;;;;;;;0.67;0.43;;;2.70;99.90;;;;;;5058150;28;20439;-71
2021/12/07 00:16:11;;;;;;;2.83;0.60;;;2.70;99.90;;;;;;5057254;28;20430;-71
2021/12/07 00:18:39;;;;;;;0.97;0.60;;;2.70;99.90;;;;;;5058132;28;20426;-71
2021/12/07 00:21:08;;;;;;;1.70;0.40;;;2.60;99.90;;;;;;5057972;28;20499;-71
2021/12/07 00:23:50;;;;;;;1.17;0.50;;;2.60;99.90;;;;;;5057820;28;20792;-71
2021/12/07 00:26:20;;;;;;;1.20;0.50;;;2.70;99.90;;;;;;5058012;28;20918;-71
2021/12/07 00:28:50;;;;;;;0.70;0.40;;;2.60;99.90;;;;;;5058244;28;20494;-71
2021/12/07 00:31:26;;;;;;;1.63;0.53;;;2.60;99.90;;;;;;5058016;28;20451;-71
2021/12/07 00:34:06;;;;;;;1.00;0.40;;;2.60;99.90;;;;;;5057697;28;20514;-71
2021/12/07 00:36:34;;;;;;;1.17;0.60;;;2.60;99.90;;;;;;5057867;28;20437;-71
2021/12/07 00:39:04;;;;;;;1.10;0.50;;;2.70;99.90;;;;;;5057622;28;20474;-71
2021/12/07 00:41:34;;;;;;;1.00;0.40;;;2.70;99.90;;;;;;5057786;28;20501;-71
2021/12/07 00:44:03;;;;;;;0.67;0.47;;;2.70;99.90;;;;;;5057349;28;20473;-71
2021/12/07 00:46:31;;;;;;;0.80;0.40;;;2.80;99.90;;;;;;5057414;28;20517;-71
2021/12/07 00:48:58;;;;;;;0.93;0.30;;;2.80;99.90;;;;;;5058278;28;20501;-70
2021/12/07 00:51:25;;;;;;;0.83;0.43;;;2.80;99.90;;;;;;5057189;28;20491;-71
2021/12/07 00:53:52;;;;;;;0.90;0.40;;;2.70;99.90;;;;;;5056188;28;20505;-72
2021/12/07 00:56:19;;;;;;;1.30;0.63;;;2.60;99.90;;;;;;5055301;28;20451;-71
2021/12/07 00:58:46;;;;;;;0.90;0.40;;;2.60;99.90;;;;;;5056108;28;20427;-71
2021/12/07 01:01:17;;;;;;;1.30;0.43;;;2.50;99.90;;;;;;5056847;28;20461;-70
2021/12/07 01:03:45;;;;;;;1.00;0.40;;;2.60;99.90;;;;;;5056861;28;20483;-71
2021/12/07 01:06:22;;;;;;;0.67;0.40;;;2.60;99.90;;;;;;5056551;28;20446;-71
2021/12/07 01:09:12;;;;;;;0.50;0.40;;;2.50;99.90;;;;;;5056438;28;20891;-71
2021/12/07 01:25:43;;;;;;;0.57;0.30;;;2.40;99.90;;;;;;5056417;28;20422;-70
2021/12/07 01:28:20;;;;;;;1.30;0.40;;;2.40;99.90;;;;;;5057025;28;20867;-70
2021/12/07 01:30:53;;;;;;;0.50;0.30;;;2.40;99.90;;;;;;5056408;28;20425;-71
2021/12/07 01:33:53;;;;;;;1.43;0.50;;;2.50;99.90;;;;;;5057065;28;20487;-70
2021/12/07 01:36:40;;;;;;;0.70;0.40;;;2.50;99.90;;;;;;5057142;28;20578;-71
2021/12/07 01:45:23;;;;;;;0.60;0.40;;;2.40;99.90;;;;;;4975346;28;20434;-70
2021/12/07 01:48:00;;;;;;;0.60;0.30;;;2.40;99.90;;;;;;5037701;28;20459;-70
2021/12/07 01:50:42;;;;;;;0.90;0.40;;;2.50;99.90;;;;;;5055585;28;20439;-70
2021/12/07 02:01:25;;;;;;;2.00;0.50;;;2.70;99.90;;;;;;5055035;28;20914;-71
2021/12/07 02:03:55;;;;;;;0.67;0.40;;;2.70;99.90;;;;;;5055864;28;20839;-70
2021/12/07 02:06:23;;;;;;;1.20;0.60;;;2.60;99.90;;;;;;5055732;28;20496;-70
2021/12/07 02:08:51;;;;;;;1.13;0.40;;;2.60;99.90;;;;;;5056079;28;20482;-70
2021/12/07 02:11:18;;;;;;;1.20;0.47;;;2.60;99.90;;;;;;5058335;28;20430;-70
2021/12/07 02:14:16;;;;;;;0.83;0.47;;;2.60;99.90;;;;;;5060077;28;20846;-70
2021/12/07 02:16:43;;;;;;;1.10;0.40;;;2.60;99.90;;;;;;5059774;28;20464;-70
2021/12/07 02:19:10;;;;;;;0.70;0.30;;;2.60;99.90;;;;;;5059724;28;20490;-70
2021/12/07 02:21:38;;;;;;;0.50;0.30;;;2.60;99.90;;;;;;5059406;28;20818;-70
2021/12/07 02:24:06;;;;;;;0.73;0.50;;;2.60;99.90;;;;;;5059857;28;20518;-70
2021/12/07 02:26:33;;;;;;;0.87;0.40;;;2.60;99.90;;;;;;5059831;28;20462;-70
2021/12/07 02:29:00;;;;;;;0.90;0.30;;;2.60;99.90;;;;;;5059892;28;20479;-70
2021/12/07 02:31:27;;;;;;;0.70;0.37;;;2.60;99.90;;;;;;5059847;28;20494;-70
2021/12/07 02:33:55;;;;;;;0.90;0.50;;;2.60;99.90;;;;;;5060175;28;20477;-70
2021/12/07 02:36:25;;;;;;;0.50;0.30;;;2.70;99.90;;;;;;5060170;28;20556;-70
2021/12/07 02:38:54;;;;;;;0.93;0.43;;;2.70;99.90;;;;;;5060454;28;20775;-70
2021/12/07 02:41:21;;;;;;;0.50;0.30;;;2.70;99.90;;;;;;5059641;28;20887;-70
2021/12/07 02:43:49;;;;;;;0.60;0.40;;;2.70;99.90;;;;;;5059754;28;20508;-70
2021/12/07 02:46:20;;;;;;;0.90;0.43;;;2.70;99.90;;;;;;5059765;28;20472;-71
2021/12/07 02:48:47;;;;;;;0.40;0.20;;;2.70;99.90;;;;;;5059892;28;20454;-70
2021/12/07 02:51:17;;;;;;;0.87;0.40;;;2.70;99.90;;;;;;5059257;28;20533;-70
2021/12/07 02:53:44;;;;;;;0.70;0.30;;;2.80;99.90;;;;;;5058708;28;20513;-70
2021/12/07 02:56:12;;;;;;;0.70;0.30;;;2.80;99.90;;;;;;5058592;28;20545;-70
2021/12/07 02:58:42;;;;;;;0.50;0.20;;;2.90;99.90;;;;;;5058273;28;20870;-70
2021/12/07 03:01:18;;;;;;;1.40;0.40;;;2.80;99.90;;;;;;5058155;28;20437;-70
2021/12/07 03:03:59;;;;;;;0.60;0.33;;;2.90;99.90;;;;;;5058446;28;20425;-70
2021/12/07 03:06:35;;;;;;;0.40;0.20;;;2.90;99.90;;;;;;5058065;28;20485;-70
2021/12/07 03:26:02;;;;;;;0.47;0.20;;;2.80;99.90;;;;;;5058513;28;20483;-70
2021/12/07 03:28:36;;;;;;;0.40;0.20;;;2.90;99.90;;;;;;5058511;28;20706;-70
2021/12/07 03:31:04;;;;;;;0.60;0.20;;;2.90;99.90;;;;;;5059264;28;20493;-70
2021/12/07 03:33:31;;;;;;;0.70;0.40;;;2.90;99.90;;;;;;5058926;28;20442;-70
2021/12/07 03:36:01;;;;;;;0.67;0.20;;;2.90;99.90;;;;;;5058658;28;20489;-70
2021/12/07 03:38:31;;;;;;;0.40;0.17;;;2.90;99.90;;;;;;5058985;28;20480;-70
2021/12/07 03:40:58;;;;;;;0.70;0.30;;;2.90;99.90;;;;;;5058872;28;20459;-70
2021/12/07 03:43:25;;;;;;;0.50;0.30;;;2.90;99.90;;;;;;5058747;28;20509;-70
2021/12/07 03:45:54;;;;;;;0.47;0.20;;;2.90;99.90;;;;;;5058509;28;20881;-70
2021/12/07 03:48:38;;;;;;;0.97;0.30;;;2.90;99.90;;;;;;5058902;28;20455;-70
2021/12/07 03:51:11;;;;;;;0.30;0.20;;;2.90;99.90;;;;;;5058273;28;20918;-70
2021/12/07 03:53:38;;;;;;;0.50;0.30;;;2.90;99.90;;;;;;5058442;28;20454;-70
2021/12/07 03:56:10;;;;;;;1.00;0.27;;;2.90;99.90;;;;;;5057871;28;20545;-70
2021/12/07 03:58:41;;;;;;;0.53;0.30;;;2.90;99.90;;;;;;5058074;28;20406;-70
2021/12/07 04:01:12;;;;;;;2.10;0.20;;;2.90;99.90;;;;;;5057838;28;20464;-70
2021/12/07 04:03:40;;;;;;;0.30;0.20;;;2.90;99.90;;;;;;5057529;28;20439;-70
2021/12/07 04:06:08;;;;;;;0.33;0.20;;;2.90;99.90;;;;;;5057497;28;20534;-70
2021/12/07 04:08:38;;;;;;;3.10;0.20;;;2.90;99.90;;;;;;5058077;28;20723;-70
2021/12/07 04:11:05;;;;;;;0.40;0.20;;;3.00;99.90;;;;;;5058094;28;20475;-70
2021/12/07 04:13:35;;;;;;;0.40;0.20;;;3.00;99.90;;;;;;5058004;28;20447;-70
2021/12/07 04:16:02;;;;;;;0.80;0.27;;;3.00;99.90;;;;;;5058231;28;20586;-70
2021/12/07 04:18:30;;;;;;;0.37;0.23;;;3.00;99.90;;;;;;5058037;28;20739;-70
2021/12/07 04:21:06;;;;;;;0.40;0.30;;;3.00;99.90;;;;;;5057740;28;20802;-71
2021/12/07 04:23:37;;;;;;;0.53;0.20;;;3.00;99.90;;;;;;5058072;28;20475;-70
2021/12/07 04:26:07;;;;;;;0.30;0.20;;;3.00;99.90;;;;;;5057872;28;20455;-70
2021/12/07 04:28:35;;;;;;;0.30;0.13;;;3.00;99.90;;;;;;5057539;28;20487;-70
2021/12/07 04:31:05;;;;;;;0.80;0.20;;;3.10;99.90;;;;;;5057527;28;20515;-70
2021/12/07 04:33:35;;;;;;;0.30;0.20;;;3.10;99.90;;;;;;5057120;28;20479;-70
2021/12/07 04:36:02;;;;;;;2.87;0.20;;;3.10;99.90;;;;;;5057534;28;20610;-70
2021/12/07 04:38:29;;;;;;;0.50;0.23;;;3.10;99.90;;;;;;5057497;28;20444;-70
2021/12/07 04:40:57;;;;;;;0.37;0.10;;;3.10;99.90;;;;;;5057123;28;20505;-70
2021/12/07 04:43:24;;;;;;;1.03;0.20;;;3.10;99.90;;;;;;5057440;28;20457;-70
2021/12/07 04:46:01;;;;;;;0.33;0.20;;;3.10;99.90;;;;;;5057225;28;20444;-70
2021/12/07 04:59:30;;;;;;;0.40;0.20;;;3.20;99.90;;;;;;5056103;28;20477;-71
2021/12/07 05:01:57;;;;;;;0.30;0.17;;;3.20;99.90;;;;;;5056533;28;20564;-71
2021/12/07 05:04:28;;;;;;;0.70;0.30;;;3.30;99.90;;;;;;5057042;28;20786;-71
2021/12/07 05:07:03;;;;;;;0.30;0.10;;;3.30;99.90;;;;;;5057029;28;20490;-71
2021/12/07 05:09:43;;;;;;;0.70;0.30;;;3.30;99.90;;;;;;5056596;28;20903;-71
2021/12/07 05:12:29;;;;;;;0.43;0.17;;;3.20;99.90;;;;;;5056776;28;20455;-71
2021/12/07 05:15:03;;;;;;;0.50;0.20;;;3.20;99.90;;;;;;5057135;28;20433;-71
2021/12/07 05:26:11;;;;;;;0.40;0.20;;;3.00;99.90;;;;;;5055893;28;20419;-71
2021/12/07 05:39:40;;;;;;;1.17;0.30;;;3.30;99.90;;;;;;5055850;28;20397;-71
2021/12/07 05:42:07;;;;;;;0.77;0.20;;;3.30;99.90;;;;;;5056362;28;20482;-71
2021/12/07 05:44:35;;;;;;;0.50;0.20;;;3.30;99.90;;;;;;5054826;28;20853;-71
2021/12/07 05:47:03;;;;;;;0.63;0.20;;;3.20;99.90;;;;;;5056273;28;20426;-71
2021/12/07 05:49:33;;;;;;;0.30;0.10;;;3.30;99.90;;;;;;5056717;28;20542;-71
2021/12/07 05:52:04;;;;;;;0.70;0.30;;;3.30;99.90;;;;;;5056172;28;20953;-71
2021/12/07 05:54:31;;;;;;;0.40;0.20;;;3.30;99.90;;;;;;5056065;28;20483;-70
2021/12/07 05:57:02;;;;;;;0.50;0.20;;;3.30;99.90;;;;;;5055247;28;20922;-70
2021/12/07 05:59:29;;;;;;;0.30;0.20;;;3.40;99.90;;;;;;5055157;28;20447;-71
2021/12/07 06:01:56;;;;;;;0.50;0.20;;;3.30;99.90;;;;;;5054291;28;20441;-71
2021/12/07 06:04:23;;;;;;;1.02;0.20;;;3.40;99.90;;;;;;5054737;28;20441;-72
2021/12/07 06:06:50;;;;;;;0.37;0.20;;;3.50;99.90;;;;;;5055079;28;20625;-73
2021/12/07 06:09:17;;;;;;;2.33;0.20;;;3.60;99.90;;;;;;5055985;28;20533;-73
2021/12/07 06:11:49;;;;;;;0.60;0.30;;;3.60;99.90;;;;;;5055239;28;20483;-72
2021/12/07 06:14:31;;;;;;;7.40;0.23;;;3.70;99.90;;;;;;5054270;28;20440;-71
2021/12/07 06:17:04;;;;;;;4.03;0.30;;;3.70;99.90;;;;;;5054110;28;20453;-71
2021/12/07 06:19:31;;;;;;;2.63;0.30;;;3.60;99.90;;;;;;5054327;28;20524;-71
2021/12/07 06:22:00;;;;;;;0.43;0.20;;;3.60;99.90;;;;;;5053104;28;20457;-71
2021/12/07 06:24:27;;;;;;;4.33;0.30;;;3.90;99.90;;;;;;5052431;28;20919;-70
2021/12/07 06:26:54;;;;;;;0.70;0.35;;;4.10;99.90;;;;;;5052833;28;20500;-70
2021/12/07 06:29:22;;;;;;;0.37;0.20;;;4.30;99.90;;;;;;5067005;28;20227;-71
2021/12/07 06:31:49;;;;;;;0.53;0.30;;;4.40;99.90;;;;;;5073659;28;20468;-71
2021/12/07 06:34:16;;;;;;;5.80;0.33;;;4.40;99.90;;;;;;5074351;28;20470;-71
2021/12/07 06:36:43;;;;;;;0.50;0.20;;;4.40;99.90;;;;;;5074136;28;20577;-72
2021/12/07 06:39:13;;;;;;;1.00;0.30;;;4.50;99.90;;;;;;5072642;28;20681;-71
2021/12/07 06:41:40;;;;;;;0.60;0.20;;;4.50;99.90;;;;;;5073814;28;20550;-71
2021/12/07 06:44:10;;;;;;;0.40;0.20;;;4.60;99.90;;;;;;5073520;28;20485;-72
2021/12/07 06:46:41;;;;;;;0.40;0.30;;;4.60;99.90;;;;;;5074330;28;20535;-71
2021/12/07 06:49:11;;;;;;;0.80;0.20;;;4.80;99.90;;;;;;5075028;28;20456;-72
2021/12/07 06:51:38;;;;;;;0.50;0.30;;;5.00;99.90;;;;;;5073977;28;20549;-71
2021/12/07 06:54:05;;;;;;;1.17;0.37;;;4.80;99.90;;;;;;5073620;28;20454;-72
2021/12/07 06:56:33;;;;;;;3.43;0.20;;;4.60;99.90;;;;;;5074482;28;20567;-72
2021/12/07 06:59:00;;;;;;;0.60;0.33;;;4.50;99.90;;;;;;5078172;28;20529;-72
2021/12/07 07:01:26;;;;;;;0.50;0.20;;;4.40;99.90;;;;;;5077491;28;20515;-71
2021/12/07 07:03:55;;;;;;;0.93;0.20;;;4.40;99.90;;;;;;5078043;28;20465;-72
2021/12/07 07:06:22;;;;;;;0.40;0.20;;;4.60;99.90;;;;;;5076641;28;20595;-72
2021/12/07 07:08:52;;;;;;;0.53;0.20;;;4.80;99.90;;;;;;5076611;28;20907;-72
2021/12/07 07:11:20;;;;;;;0.30;0.20;;;4.70;99.90;;;;;;5077157;28;20869;-71
2021/12/07 07:13:50;;;;;;;2.43;0.30;;;5.00;99.90;;;;;;5077811;28;20446;-71
2021/12/07 07:16:18;;;;;;;1.40;0.20;;;5.40;99.90;;;;;;5076390;28;20489;-71
2021/12/07 07:18:45;;;;;;;0.60;0.30;;;5.30;99.90;;;;;;5077287;28;20504;-71
2021/12/07 07:21:13;;;;;;;0.50;0.30;;;5.40;99.90;;;;;;5078470;28;20504;-71
2021/12/07 07:23:41;;;;;;;0.60;0.30;;;5.20;99.90;;;;;;5077686;28;20446;-71
2021/12/07 07:26:08;;;;;;;0.50;0.30;;;5.00;99.90;;;;;;5077384;28;20545;-71
2021/12/07 07:28:35;;;;;;;0.63;0.30;;;5.00;99.90;;;;;;5078109;28;20485;-72
2021/12/07 07:31:05;;;;;;;0.60;0.20;;;4.80;99.90;;;;;;5077412;28;20886;-72
2021/12/07 07:33:32;;;;;;;0.33;0.20;;;5.00;99.90;;;;;;5077667;28;20481;-72
2021/12/07 07:36:01;;;;;;;1.37;0.20;;;5.20;99.90;;;;;;5077190;28;20490;-71
2021/12/07 07:38:31;;;;;;;1.60;0.30;;;5.00;99.90;;;;;;5077673;28;20450;-72
2021/12/07 07:40:58;;;;;;;0.60;0.20;;;4.80;99.90;;;;;;5077132;28;20524;-72
2021/12/07 07:43:26;;;;;;;0.30;0.20;;;4.80;99.90;;;;;;5077330;28;20477;-71
2021/12/07 07:45:54;;;;;;;1.43;0.20;;;4.70;99.90;;;;;;5076886;28;20442;-71
2021/12/07 07:48:23;;;;;;;1.47;0.30;;;4.90;99.90;;;;;;5076945;28;20466;-71
2021/12/07 07:50:52;;;;;;;2.23;0.30;;;4.90;99.90;;;;;;5075616;28;20482;-71
2021/12/07 07:53:21;;;;;;;0.53;0.23;;;5.20;99.90;;;;;;5074600;28;20478;-71
2021/12/07 07:55:53;;;;;;;0.40;0.20;;;5.30;99.90;;;;;;5071679;28;20489;-71
2021/12/07 07:58:20;;;;;;;1.23;0.30;;;5.20;99.90;;;;;;5075469;28;20546;-71
2021/12/07 08:00:49;;;;;;;0.40;0.20;;;5.20;99.90;;;;;;5075799;28;20442;-70
2021/12/07 08:03:17;;;;;;;1.70;0.30;;;4.90;99.90;;;;;;5075590;28;20925;-71
2021/12/07 08:05:45;;;;;;;0.93;0.20;;;4.80;99.90;;;;;;5075947;28;21081;-70
2021/12/07 08:08:12;;;;;;;0.73;0.30;;;4.90;99.90;;;;;;5075281;28;20482;-70
2021/12/07 08:10:41;;;;;;;7.63;0.37;;;5.00;99.90;;;;;;5075236;28;20470;-71
2021/12/07 08:13:10;;;;;;;3.60;0.40;;;4.90;99.90;;;;;;5075164;28;20457;-71
2021/12/07 08:15:47;;;;;;;0.37;0.20;;;5.00;99.90;;;;;;5075790;28;20450;-72
2021/12/07 08:18:17;;;;;;;0.90;0.20;;;5.30;99.90;;;;;;5074479;28;20495;-72
2021/12/07 08:20:45;;;;;;;0.30;0.20;;;5.10;99.90;;;;;;5076364;28;20568;-72
2021/12/07 08:23:14;;;;;;;0.80;0.20;;;5.20;99.90;;;;;;5075903;28;20958;-72
2021/12/07 08:25:46;;;;;;;5.30;0.30;;;5.40;99.90;;;;;;5076426;28;20446;-72
2021/12/07 08:28:19;;;;;;;0.83;0.30;;;5.60;99.90;;;;;;5075346;28;20442;-72
2021/12/07 08:30:48;;;;;;;0.47;0.23;;;5.70;99.90;;;;;;5076363;28;20882;-71
2021/12/07 08:33:19;;;;;;;0.70;0.20;;;5.70;99.90;;;;;;5075576;28;20602;-72
2021/12/07 08:35:49;;;;;;;0.60;0.40;;;5.70;99.90;;;;;;5076123;28;20469;-72
2021/12/07 08:38:17;;;;;;;0.87;0.30;;;5.80;99.90;;;;;;5075446;28;20537;-72
2021/12/07 08:40:53;;;;;;;9.13;0.40;;;5.80;99.90;;;;;;5076120;28;20466;-72
2021/12/07 08:43:34;;;;;;;0.40;0.30;;;5.60;99.90;;;;;;5074746;28;20449;-72
2021/12/07 08:46:05;;;;;;;0.93;0.30;;;5.80;99.90;;;;;;5074452;28;20501;-72
2021/12/07 08:48:37;;;;;;;2.53;0.30;;;5.70;99.90;;;;;;5074721;28;20815;-72
2021/12/07 08:51:09;;;;;;;0.80;0.20;;;5.60;99.90;;;;;;5073833;28;20443;-72
2021/12/07 08:53:46;;;;;;;2.13;0.23;;;5.70;99.90;;;;;;5073851;28;20844;-72
2021/12/07 09:01:50;;;;;;;4.53;0.20;;;6.20;99.90;;;;;;5073608;28;20585;-72
2021/12/07 09:04:19;;;;;;;0.47;0.20;;;6.00;99.90;;;;;;5073328;28;20447;-72
2021/12/07 09:06:48;;;;;;;0.30;0.20;;;6.10;99.90;;;;;;5072412;28;20485;-73
2021/12/07 09:09:18;;;;;;;1.17;0.30;;;6.10;99.90;;;;;;5073123;28;20934;-73
2021/12/07 09:11:46;;;;;;;2.13;0.23;;;6.10;99.90;;;;;;5073164;28;20516;-72
2021/12/07 09:14:18;;;;;;;1.57;0.27;;;6.20;99.90;;;;;;5072444;28;20496;-72
2021/12/07 09:16:48;;;;;;;0.60;0.27;;;6.00;99.90;;;;;;5072837;28;20490;-72
2021/12/07 09:19:16;;;;;;;0.60;0.30;;;5.80;99.90;;;;;;5074330;28;20477;-71
2021/12/07 09:21:43;;;;;;;1.53;0.20;;;5.60;99.90;;;;;;5074684;28;20549;-72
2021/12/07 09:24:20;;;;;;;0.40;0.20;;;5.40;99.90;;;;;;5074517;28;20834;-72
2021/12/07 09:26:50;;;;;;;2.10;0.27;;;5.30;99.90;;;;;;5071242;28;20523;-72
2021/12/07 09:29:22;;;;;;;5.80;0.40;;;5.30;99.90;;;;;;5073253;28;20944;-72
2021/12/07 09:31:51;;;;;;;0.87;0.20;;;5.40;99.90;;;;;;5072192;28;20523;-71
2021/12/07 09:34:21;;;;;;;0.67;0.30;;;5.50;99.90;;;;;;5072086;28;20926;-72
2021/12/07 09:36:51;;;;;;;0.73;0.30;;;5.50;99.90;;;;;;5071006;28;20933;-72
2021/12/07 09:39:19;;;;;;;0.40;0.17;;;5.50;99.90;;;;;;5073866;28;20493;-72
2021/12/07 09:41:47;;;;;;;2.53;0.20;;;5.70;99.90;;;;;;5074411;28;20482;-72
2021/12/07 09:44:14;;;;;;;4.00;0.40;;;5.80;99.90;;;;;;5074586;28;20494;-72
2021/12/07 09:46:43;;;;;;;1.23;0.17;;;5.90;99.90;;;;;;5073930;28;20462;-72
2021/12/07 09:49:12;;;;;;;0.50;0.30;;;5.70;99.90;;;;;;5073177;28;20485;-71
2021/12/07 09:51:42;;;;;;;0.63;0.20;;;5.80;99.90;;;;;;5073002;28;20465;-72
2021/12/07 09:54:13;;;;;;;0.40;0.20;;;5.80;99.90;;;;;;5073400;28;20905;-70
2021/12/07 09:59:31;;;;;;;2.00;0.20;;;6.20;99.90;;;;;;5072666;28;20451;-73
2021/12/07 10:01:59;;;;;;;0.60;0.27;;;6.40;99.90;;;;;;5072166;28;20469;-72
2021/12/07 10:04:31;;;;;;;0.50;0.20;;;7.00;99.90;;;;;;5071649;28;20516;-73
2021/12/07 10:07:04;;;;;;;2.50;0.30;;;6.80;99.90;;;;;;5071084;28;21018;-73
2021/12/07 10:09:37;;;;;;;0.70;0.23;;;6.70;99.90;;;;;;5072147;28;20749;-73
2021/12/07 10:12:08;;;;;;;8.00;0.33;;;6.40;99.90;;;;;;5072612;28;20454;-74
2021/12/07 10:14:48;;;;;;;0.60;0.30;;;6.30;99.90;;;;;;5072366;28;20890;-73
2021/12/07 10:17:25;;;;;;;2.40;0.33;;;6.30;99.90;;;;;;5073495;28;20490;-73
2021/12/07 10:19:58;;;;;;;1.13;0.30;;;6.50;99.90;;;;;;5074563;28;20477;-74
2021/12/07 10:22:34;;;;;;;0.60;0.20;;;6.40;99.90;;;;;;5074161;28;20866;-74
2021/12/07 10:25:04;;;;;;;0.50;0.23;;;6.30;99.90;;;;;;5073011;28;20939;-74
2021/12/07 10:27:37;;;;;;;3.60;0.30;;;6.30;99.90;;;;;;5073777;28;20460;-73
2021/12/07 10:30:06;;;;;;;0.97;0.30;;;6.40;99.90;;;;;;5073993;28;20565;-73
2021/12/07 10:32:39;;;;;;;0.67;0.20;;;6.70;99.90;;;;;;5077543;28;20541;-73
2021/12/07 10:35:27;;;;;;;0.30;0.10;;;6.80;99.90;;;;;;5078012;28;20496;-72
2021/12/07 10:38:13;;;;;;;0.70;0.20;;;6.80;99.90;;;;;;5078184;28;20522;-73
2021/12/07 10:40:56;;;;;;;0.50;0.20;;;7.00;99.90;;;;;;5076744;28;20454;-73
2021/12/07 10:43:47;;;;;;;0.50;0.20;;;7.20;99.90;;;;;;5074915;28;20774;-73
2021/12/07 10:46:43;;;;;;;1.67;0.40;;;7.30;99.90;;;;;;5071063;28;20461;-73
2021/12/07 10:49:37;;;;;;;1.80;0.30;;;7.20;99.90;;;;;;5076465;28;20507;-74
2021/12/07 10:52:30;;;;;;;0.50;0.30;;;7.30;99.90;;;;;;5075213;28;21094;-74
2021/12/07 10:55:01;;;;;;;1.00;0.38;;;7.10;99.90;;;;;;5062643;28;20449;-74
2021/12/07 10:57:34;;;;;;;3.33;0.30;;;7.10;99.90;;;;;;5076914;28;20231;-73
2021/12/07 11:00:21;;;;;;;1.00;0.30;;;7.20;99.90;;;;;;5077268;28;20457;-74
2021/12/07 11:02:51;;;;;;;2.20;0.23;;;7.30;99.90;;;;;;5078124;28;20519;-74
2021/12/07 11:05:31;;;;;;;0.50;0.17;;;7.00;99.90;;;;;;5077373;28;20441;-73
2021/12/07 11:08:08;;;;;;;0.57;0.20;;;6.80;99.90;;;;;;5076904;28;20501;-72
2021/12/07 11:10:38;;;;;;;1.90;0.30;;;6.90;99.90;;;;;;5076741;28;20456;-73
2021/12/07 11:13:21;;;;;;;6.73;0.17;;;6.80;99.90;;;;;;5078286;28;20446;-72
2021/12/07 11:15:52;;;;;;;0.30;0.20;;;6.70;99.90;;;;;;5077955;28;20446;-73
2021/12/07 11:18:26;;;;;;;0.50;0.20;;;6.50;99.90;;;;;;5075338;28;20517;-71
2021/12/07 11:21:04;;;;;;;2.20;0.20;;;6.50;99.90;;;;;;5075103;28;20457;-72
2021/12/07 11:23:38;;;;;;;0.40;0.23;;;6.70;99.90;;;;;;5072424;28;20461;-72
2021/12/07 11:31:56;;;;;;;1.30;0.20;;;7.40;99.90;;;;;;5075465;28;20442;-72
2021/12/07 11:34:27;;;;;;;1.13;0.20;;;7.50;99.90;;;;;;5076627;28;20537;-72
2021/12/07 11:37:08;;;;;;;0.70;0.30;;;7.60;99.90;;;;;;5077053;28;20454;-72
2021/12/07 11:39:50;;;;;;;0.60;0.30;;;7.60;99.90;;;;;;5075601;28;20746;-73
2021/12/07 11:42:23;;;;;;;0.93;0.30;;;7.70;99.90;;;;;;5056964;28;20460;-73
2021/12/07 11:44:52;;;;;;;2.90;0.13;;;7.70;99.90;;;;;;5057906;28;20448;-72
2021/12/07 11:47:30;;;;;;;4.80;0.20;;;7.80;99.90;;;;;;5057048;28;20505;-72
2021/12/07 11:50:02;;;;;;;0.60;0.20;;;7.80;99.90;;;;;;5070267;28;20454;-72
2021/12/07 11:52:37;;;;;;;1.07;0.20;;;7.70;99.90;;;;;;5076822;28;20458;-72
2021/12/07 11:55:09;;;;;;;0.50;0.20;;;7.50;99.90;;;;;;5058015;28;20442;-72
2021/12/07 12:00:34;;;;;;;1.53;0.13;;;7.00;99.90;;;;;;5071883;28;20893;-72
2021/12/07 12:03:10;;;;;;;0.80;0.20;;;6.80;99.90;;;;;;5075848;28;20527;-72
2021/12/07 12:05:41;;;;;;;1.10;0.20;;;7.00;99.90;;;;;;5075112;28;20557;-72
2021/12/07 12:08:22;;;;;;;0.97;0.20;;;6.80;99.90;;;;;;5075135;28;20470;-73
2021/12/07 12:10:59;;;;;;;1.10;0.20;;;6.80;99.90;;;;;;5066782;28;20470;-72
2021/12/07 12:13:40;;;;;;;0.70;0.30;;;6.70;99.90;;;;;;5070539;28;20893;-72
2021/12/07 12:16:18;;;;;;;0.77;0.20;;;6.60;99.90;;;;;;5073158;28;20532;-72
2021/12/07 12:18:58;;;;;;;0.80;0.23;;;6.40;99.90;;;;;;5074672;28;20474;-72
2021/12/07 12:21:39;;;;;;;2.10;0.20;;;6.50;99.90;;;;;;5076124;28;20450;-72
2021/12/07 12:24:14;;;;;;;0.30;0.20;;;6.90;99.90;;;;;;5074353;28;20770;-73
2021/12/07 12:26:50;;;;;;;0.67;0.20;;;6.80;99.90;;;;;;5070154;28;20478;-72
2021/12/07 12:29:39;;;;;;;0.20;0.10;;;7.00;99.90;;;;;;5072427;28;20438;-72
2021/12/07 12:32:08;;;;;;;3.40;0.30;;;7.00;99.90;;;;;;5074736;28;20473;-72
2021/12/07 12:34:39;;;;;;;0.47;0.30;;;6.60;99.90;;;;;;5075386;28;20521;-71
2021/12/07 12:37:10;;;;;;;3.30;0.50;;;6.60;99.90;;;;;;5076478;28;20537;-72
2021/12/07 12:39:56;;;;;;;0.30;0.10;;;6.60;99.90;;;;;;5074990;28;20515;-72
2021/12/07 12:42:38;;;;;;;1.10;0.30;;;6.50;99.90;;;;;;5073905;28;20478;-72
2021/12/07 12:45:20;;;;;;;1.10;0.37;;;6.70;99.90;;;;;;5072050;28;20454;-71
2021/12/07 12:47:53;;;;;;;0.63;0.23;;;6.80;99.90;;;;;;5069998;28;20457;-72
2021/12/07 12:50:24;;;;;;;0.33;0.20;;;6.90;99.90;;;;;;5072369;28;20552;-70
2021/12/07 12:52:54;;;;;;;0.60;0.20;;;6.90;99.90;;;;;;5050418;28;20738;-71
2021/12/07 12:55:40;;;;;;;2.00;0.30;;;6.80;99.90;;;;;;5051943;28;20455;-70
2021/12/07 12:58:14;;;;;;;0.50;0.20;;;7.00;99.90;;;;;;5052438;28;20868;-70
2021/12/07 13:01:03;;;;;;;0.30;0.10;;;7.10;99.90;;;;;;5053789;28;20459;-70
2021/12/07 13:04:08;;;;;;;0.90;0.20;;;7.00;99.90;;;;;;5055844;28;20899;-73
2021/12/07 13:07:23;;;;;;;1.03;0.30;;;7.10;99.90;;;;;;4971498;28;20482;-72
2021/12/07 13:09:56;;;;;;;1.47;0.20;;;7.10;99.90;;;;;;5035034;28;20443;-72
2021/12/07 13:12:28;;;;;;;0.40;0.20;;;6.90;99.90;;;;;;5054759;28;20821;-71
2021/12/07 13:14:58;;;;;;;1.03;0.17;;;6.90;99.90;;;;;;5055762;28;20461;-75
2021/12/07 13:17:38;;;;;;;0.60;0.20;;;6.80;99.90;;;;;;5071455;28;20557;-75
2021/12/07 13:20:26;;;;;;;3.40;0.20;;;6.70;99.90;;;;;;5062669;28;20507;-76
2021/12/07 13:22:58;;;;;;;1.77;0.30;;;6.70;99.90;;;;;;5055090;28;20455;-76
2021/12/07 13:25:30;;;;;;;0.53;0.20;;;6.60;99.90;;;;;;5054306;28;20447;-76
2021/12/07 13:28:13;;;;;;;3.00;0.83;;;6.50;99.90;;;;;;5051722;28;20828;-76
2021/12/07 13:31:15;;;;;;;1.77;0.27;;;6.50;99.90;;;;;;5056740;28;20471;-76
2021/12/07 13:33:48;;;;;;;5.57;1.93;;;6.40;99.90;;;;;;5068393;28;20476;-73
2021/12/07 13:36:49;;;;;;;2.20;0.30;;;6.40;99.90;;;;;;5067425;28;20507;-74
2021/12/07 13:39:51;;;;;;;0.60;0.20;;;6.40;99.90;;;;;;5074009;28;20518;-76
2021/12/07 13:42:29;;;;;;;0.40;0.23;;;6.30;99.90;;;;;;5075165;28;20454;-74
2021/12/07 13:45:06;;;;;;;0.50;0.20;;;6.30;99.90;;;;;;5073246;28;20828;-73
2021/12/07 13:47:40;;;;;;;1.47;0.30;;;6.20;99.90;;;;;;5075498;28;20458;-74
2021/12/07 13:50:12;;;;;;;0.30;0.20;;;6.10;99.90;;;;;;5074282;28;20740;-74
2021/12/07 13:52:44;;;;;;;1.87;0.20;;;6.10;99.90;;;;;;5075245;28;20898;-75
2021/12/07 13:55:18;;;;;;;0.40;0.20;;;6.00;99.90;;;;;;5075362;28;20481;-75
2021/12/07 13:57:54;;;;;;;1.17;0.20;;;5.90;99.90;;;;;;5074427;28;20461;-74
2021/12/07 14:00:26;;;;;;;0.60;0.30;;;5.90;99.90;;;;;;5076358;28;20454;-74
2021/12/07 14:03:00;;;;;;;2.30;0.30;;;5.90;99.90;;;;;;5075298;28;20443;-75
2021/12/07 14:05:33;;;;;;;1.57;0.20;;;5.80;99.90;;;;;;5072111;28;20470;-74
2021/12/07 14:08:07;;;;;;;0.40;0.10;;;5.70;99.90;;;;;;5063679;28;20439;-74
2021/12/07 14:10:44;;;;;;;0.57;0.27;;;5.70;99.90;;;;;;5074330;28;20443;-75
2021/12/07 14:13:14;;;;;;;2.33;0.20;;;5.60;99.90;;;;;;5073440;28;20446;-75
2021/12/07 14:15:47;;;;;;;2.77;0.23;;;5.50;99.90;;;;;;5070859;28;20431;-76
2021/12/07 14:18:22;;;;;;;0.40;0.20;;;5.50;99.90;;;;;;5078761;28;20538;-76
2021/12/07 14:20:52;;;;;;;0.83;0.30;;;5.40;99.90;;;;;;5075495;28;20440;-75
2021/12/07 14:23:24;;;;;;;0.30;0.20;;;5.40;99.90;;;;;;5073875;28;20886;-75
2021/12/07 14:25:55;;;;;;;1.13;0.23;;;5.30;99.90;;;;;;5075736;28;20446;-74
2021/12/07 14:28:39;;;;;;;0.50;0.20;;;5.30;99.90;;;;;;5075703;28;20501;-74
2021/12/07 14:31:16;;;;;;;4.97;0.30;;;5.30;99.90;;;;;;5075193;28;20564;-74
2021/12/07 14:33:47;;;;;;;2.20;0.20;;;5.30;99.90;;;;;;5072520;28;20440;-74
2021/12/07 14:36:20;;;;;;;0.30;0.20;;;5.20;99.90;;;;;;5072144;28;21118;-74
2021/12/07 14:38:48;;;;;;;1.80;0.20;;;5.30;99.90;;;;;;5069790;28;20486;-73
2021/12/07 14:41:19;;;;;;;3.33;0.20;;;5.30;99.90;;;;;;5072751;28;20477;-72
2021/12/07 14:43:47;;;;;;;0.50;0.10;;;5.40;99.90;;;;;;5072495;28;20897;-74
2021/12/07 14:46:21;;;;;;;0.40;0.13;;;5.40;99.90;;;;;;5070865;28;20446;-74
2021/12/07 14:48:50;;;;;;;0.53;0.30;;;5.40;99.90;;;;;;5074025;28;20500;-72
2021/12/07 14:51:20;;;;;;;0.50;0.20;;;5.30;99.90;;;;;;5073952;28;20503;-72
2021/12/07 14:53:49;;;;;;;0.70;0.20;;;5.30;99.90;;;;;;5072585;28;20458;-72
2021/12/07 14:56:20;;;;;;;0.50;0.10;;;5.30;99.90;;;;;;5073359;28;20447;-71
2021/12/07 14:58:56;;;;;;;0.50;0.20;;;5.20;99.90;;;;;;5072917;28;20558;-73